Other Surface Observations
Issued by NWS Great Falls, MT

Home | Current Version | Previous Version | Text Only | Print | Product List | Glossary On
Versions: 1 2 3 4 5 6 7 8 9 10 11 12 13 14 15 16 17 18 19 20 21 22 23 24 25 26 27 28 29 30 31 32 33 34 35 36 37 38 39 40 41 42 43 44 45 46 47 48 49 50
894
SXUS55 KTFX 111307
OSOTFX

AREA AWOS OBSERVATIONS
NATIONAL WEATHER SERVICE GREAT FALLS MT
0607 AM MST Thu Feb 11 2016

METAR K6S8 111255Z AUTO 28001KT 40SM 07/M07 A3005 RMK A01 T00661066
METAR K6S8 111255Z AUTO 28001KT 40SM 07/M07 A3005 RMK A01 T00661066
METAR K6S8 111155Z AUTO 28001KT 40SM 06/M07 A3003 RMK A01 T00611066
METAR K97M 111255Z AUTO 25008KT 40SM 04/M03 A2993 RMK A01 T00381027
METAR K9S2 111255Z AUTO 35005KT 1 1/2SM M05/M09 A3002 RMK A01 T10501088
METAR K9S5 111255Z AUTO 01000KT 25SM M02/M02 A3018 RMK A01 T10161016
METAR KRPX 111255Z AUTO 25010KT 40SM 08/M04 A2996 RMK A01 T00771038
METAR KS01 111255Z AUTO 21013KT 40SM 07/M01 A3009 RMK A01 T00661011
METAR KS34 111255Z AUTO 12002KT 15SM 02/00 A3026 RMK A01 T00220000
METAR KTHM 111155Z AUTO 22002KT 40SM 02/01 A3031 RMK A01 T00160011



USA.gov is the U.S. government's official web portal to all federal, state and local government web resources and services.